Portada
METAR-TAF:

METAR-TAF

Aeroports :

Vereeniging, Sud-àfrica

latitud: 26-34-29S, longitud: 027-57-45E, altitud: 1483 m

Observació

L'informe es va fer fa 10 hores i 1 minuts, a les 07:00 UTC
Vent 2 kt del Nord
Temperatura 22°C
Humitat 23%
Pressió 1027 hPa

METAR: FAVV 160700Z AUTO 36002KT //// // ////// 22/00 Q1027

Hora: 19:01 (17:01 UTC)


TAF: manca

Observacions i pronòstics meteorològics de més de 4000 aeroports (METAR i TAF).

Les estacions disponibles són els punts grocs i vermells al mapa.

Posi el ratolí al punt desitjat per veure el nom de l'estació.

Feu clic per veure les observacions i els pronòstics meteorològics.

Per canviar el mapa: feu clic els botons verds amb una creu de color negre per apropar; al botó verd amb un guió per allunyar la imatge; o en les fletxes verdes per a mapes adjacents.


METAR-TAF: